sensor_id;sensor_type;location;lat;lon;timestamp;P1;durP1;ratioP1;P2;durP2;ratioP2
43088;SDS011;28709;52.030;5.652;2022-10-31T00:00:55;15.73;;;5.80;;
43088;SDS011;28709;52.030;5.652;2022-10-31T00:03:22;10.70;;;4.95;;
43088;SDS011;28709;52.030;5.652;2022-10-31T00:05:48;11.38;;;5.15;;
43088;SDS011;28709;52.030;5.652;2022-10-31T00:08:15;11.63;;;6.93;;
43088;SDS011;28709;52.030;5.652;2022-10-31T00:10:42;7.82;;;5.10;;
43088;SDS011;28709;52.030;5.652;2022-10-31T00:13:09;11.10;;;6.43;;
43088;SDS011;28709;52.030;5.652;2022-10-31T00:15:39;11.20;;;6.75;;
43088;SDS011;28709;52.030;5.652;2022-10-31T00:18:06;14.15;;;6.80;;
43088;SDS011;28709;52.030;5.652;2022-10-31T00:20:32;11.40;;;5.75;;
43088;SDS011;28709;52.030;5.652;2022-10-31T00:22:59;17.88;;;7.07;;
43088;SDS011;28709;52.030;5.652;2022-10-31T00:25:25;12.07;;;6.68;;
43088;SDS011;28709;52.030;5.652;2022-10-31T00:27:51;10.50;;;6.05;;
43088;SDS011;28709;52.030;5.652;2022-10-31T00:30:17;8.45;;;5.38;;
43088;SDS011;28709;52.030;5.652;2022-10-31T00:32:42;8.88;;;5.15;;
43088;SDS011;28709;52.030;5.652;2022-10-31T00:35:08;9.60;;;5.18;;
43088;SDS011;28709;52.030;5.652;2022-10-31T00:37:34;7.00;;;4.30;;
43088;SDS011;28709;52.030;5.652;2022-10-31T00:39:59;10.25;;;5.47;;
43088;SDS011;28709;52.030;5.652;2022-10-31T00:42:25;7.13;;;4.53;;
43088;SDS011;28709;52.030;5.652;2022-10-31T00:44:51;8.00;;;4.35;;
43088;SDS011;28709;52.030;5.652;2022-10-31T00:47:16;8.43;;;4.25;;
43088;SDS011;28709;52.030;5.652;2022-10-31T00:49:42;6.55;;;4.22;;
43088;SDS011;28709;52.030;5.652;2022-10-31T00:52:07;8.32;;;4.15;;
43088;SDS011;28709;52.030;5.652;2022-10-31T00:54:33;11.00;;;5.00;;
43088;SDS011;28709;52.030;5.652;2022-10-31T00:56:59;12.70;;;6.32;;
43088;SDS011;28709;52.030;5.652;2022-10-31T00:59:24;8.27;;;5.43;;
43088;SDS011;28709;52.030;5.652;2022-10-31T01:01:50;9.40;;;5.35;;
43088;SDS011;28709;52.030;5.652;2022-10-31T01:04:15;7.47;;;5.18;;
43088;SDS011;28709;52.030;5.652;2022-10-31T01:06:41;7.43;;;3.83;;
43088;SDS011;28709;52.030;5.652;2022-10-31T01:09:07;8.07;;;4.68;;
43088;SDS011;28709;52.030;5.652;2022-10-31T01:11:32;5.30;;;4.00;;
43088;SDS011;28709;52.030;5.652;2022-10-31T01:13:58;6.07;;;3.45;;
43088;SDS011;28709;52.030;5.652;2022-10-31T01:16:24;6.00;;;4.03;;
43088;SDS011;28709;52.030;5.652;2022-10-31T01:18:51;5.60;;;3.90;;
43088;SDS011;28709;52.030;5.652;2022-10-31T01:21:18;6.32;;;4.22;;
43088;SDS011;28709;52.030;5.652;2022-10-31T01:23:48;7.13;;;3.97;;
43088;SDS011;28709;52.030;5.652;2022-10-31T01:26:18;9.57;;;4.65;;
43088;SDS011;28709;52.030;5.652;2022-10-31T01:31:22;7.03;;;5.03;;
43088;SDS011;28709;52.030;5.652;2022-10-31T01:33:50;8.35;;;3.95;;
43088;SDS011;28709;52.030;5.652;2022-10-31T01:36:17;8.07;;;4.50;;
43088;SDS011;28709;52.030;5.652;2022-10-31T01:38:51;8.18;;;4.50;;
43088;SDS011;28709;52.030;5.652;2022-10-31T01:41:20;5.25;;;3.55;;
43088;SDS011;28709;52.030;5.652;2022-10-31T01:43:55;9.30;;;4.45;;
43088;SDS011;28709;52.030;5.652;2022-10-31T01:46:26;9.00;;;4.47;;
43088;SDS011;28709;52.030;5.652;2022-10-31T01:48:53;7.88;;;4.63;;
43088;SDS011;28709;52.030;5.652;2022-10-31T01:51:20;6.65;;;3.92;;
43088;SDS011;28709;52.030;5.652;2022-10-31T01:53:50;5.55;;;4.00;;
43088;SDS011;28709;52.030;5.652;2022-10-31T01:56:19;8.13;;;4.88;;
43088;SDS011;28709;52.030;5.652;2022-10-31T01:58:46;9.05;;;4.95;;
43088;SDS011;28709;52.030;5.652;2022-10-31T02:01:12;9.38;;;4.88;;
43088;SDS011;28709;52.030;5.652;2022-10-31T02:03:40;7.05;;;5.03;;
43088;SDS011;28709;52.030;5.652;2022-10-31T02:06:07;7.20;;;4.38;;
43088;SDS011;28709;52.030;5.652;2022-10-31T02:08:43;5.93;;;3.25;;
43088;SDS011;28709;52.030;5.652;2022-10-31T02:11:08;5.13;;;3.80;;
43088;SDS011;28709;52.030;5.652;2022-10-31T02:13:35;7.30;;;4.50;;
43088;SDS011;28709;52.030;5.652;2022-10-31T02:16:01;7.65;;;4.95;;
43088;SDS011;28709;52.030;5.652;2022-10-31T02:18:28;9.77;;;5.43;;
43088;SDS011;28709;52.030;5.652;2022-10-31T02:21:07;7.47;;;4.18;;
43088;SDS011;28709;52.030;5.652;2022-10-31T02:23:48;9.30;;;5.75;;
43088;SDS011;28709;52.030;5.652;2022-10-31T02:29:32;5.05;;;3.17;;
43088;SDS011;28709;52.030;5.652;2022-10-31T02:32:25;4.95;;;3.58;;
43088;SDS011;28709;52.030;5.652;2022-10-31T02:34:57;7.40;;;3.97;;
43088;SDS011;28709;52.030;5.652;2022-10-31T02:38:02;6.17;;;4.17;;
43088;SDS011;28709;52.030;5.652;2022-10-31T02:48:44;8.55;;;5.60;;
43088;SDS011;28709;52.030;5.652;2022-10-31T02:51:11;8.95;;;5.72;;
43088;SDS011;28709;52.030;5.652;2022-10-31T02:53:37;8.00;;;5.57;;
43088;SDS011;28709;52.030;5.652;2022-10-31T02:56:11;8.43;;;5.90;;
43088;SDS011;28709;52.030;5.652;2022-10-31T02:58:44;7.40;;;5.10;;
43088;SDS011;28709;52.030;5.652;2022-10-31T03:01:39;8.30;;;5.13;;
43088;SDS011;28709;52.030;5.652;2022-10-31T03:04:33;8.10;;;4.60;;
43088;SDS011;28709;52.030;5.652;2022-10-31T03:07:21;7.32;;;4.50;;
43088;SDS011;28709;52.030;5.652;2022-10-31T03:15:33;9.38;;;5.22;;
43088;SDS011;28709;52.030;5.652;2022-10-31T03:18:21;5.93;;;4.03;;
43088;SDS011;28709;52.030;5.652;2022-10-31T03:23:25;7.32;;;4.60;;
43088;SDS011;28709;52.030;5.652;2022-10-31T03:25:52;10.93;;;4.68;;
43088;SDS011;28709;52.030;5.652;2022-10-31T03:28:21;8.13;;;4.85;;
43088;SDS011;28709;52.030;5.652;2022-10-31T03:30:53;10.90;;;5.68;;
43088;SDS011;28709;52.030;5.652;2022-10-31T03:33:24;7.63;;;4.93;;
43088;SDS011;28709;52.030;5.652;2022-10-31T03:35:53;9.77;;;5.35;;
43088;SDS011;28709;52.030;5.652;2022-10-31T03:38:22;7.40;;;5.50;;
43088;SDS011;28709;52.030;5.652;2022-10-31T03:40:48;10.85;;;6.25;;
43088;SDS011;28709;52.030;5.652;2022-10-31T03:43:18;5.85;;;4.28;;
43088;SDS011;28709;52.030;5.652;2022-10-31T03:45:49;7.60;;;4.53;;
43088;SDS011;28709;52.030;5.652;2022-10-31T03:48:15;10.77;;;4.07;;
43088;SDS011;28709;52.030;5.652;2022-10-31T03:53:36;7.10;;;4.28;;
43088;SDS011;28709;52.030;5.652;2022-10-31T03:58:47;8.05;;;4.97;;
43088;SDS011;28709;52.030;5.652;2022-10-31T04:01:17;7.82;;;4.63;;
43088;SDS011;28709;52.030;5.652;2022-10-31T04:03:45;9.20;;;5.65;;
43088;SDS011;28709;52.030;5.652;2022-10-31T04:06:11;8.93;;;5.45;;
43088;SDS011;28709;52.030;5.652;2022-10-31T04:08:48;7.30;;;4.55;;
43088;SDS011;28709;52.030;5.652;2022-10-31T04:11:22;5.85;;;4.15;;
43088;SDS011;28709;52.030;5.652;2022-10-31T04:13:50;9.02;;;4.68;;
43088;SDS011;28709;52.030;5.652;2022-10-31T04:16:18;11.07;;;5.57;;
43088;SDS011;28709;52.030;5.652;2022-10-31T04:18:45;9.13;;;5.20;;
43088;SDS011;28709;52.030;5.652;2022-10-31T04:21:10;7.50;;;5.22;;
43088;SDS011;28709;52.030;5.652;2022-10-31T04:23:36;10.18;;;5.78;;
43088;SDS011;28709;52.030;5.652;2022-10-31T04:26:02;7.93;;;5.20;;
43088;SDS011;28709;52.030;5.652;2022-10-31T04:28:28;6.90;;;5.00;;
43088;SDS011;28709;52.030;5.652;2022-10-31T04:30:53;7.68;;;5.63;;
43088;SDS011;28709;52.030;5.652;2022-10-31T04:33:19;6.93;;;4.32;;
43088;SDS011;28709;52.030;5.652;2022-10-31T04:35:45;5.57;;;4.03;;
43088;SDS011;28709;52.030;5.652;2022-10-31T04:38:11;8.38;;;5.30;;
43088;SDS011;28709;52.030;5.652;2022-10-31T04:40:37;6.43;;;4.82;;
43088;SDS011;28709;52.030;5.652;2022-10-31T04:43:02;6.13;;;4.45;;
43088;SDS011;28709;52.030;5.652;2022-10-31T04:45:28;6.70;;;4.70;;
43088;SDS011;28709;52.030;5.652;2022-10-31T04:47:53;8.35;;;4.95;;
43088;SDS011;28709;52.030;5.652;2022-10-31T04:50:19;9.30;;;5.03;;
43088;SDS011;28709;52.030;5.652;2022-10-31T04:52:45;9.75;;;5.13;;
43088;SDS011;28709;52.030;5.652;2022-10-31T04:55:11;11.60;;;5.07;;
43088;SDS011;28709;52.030;5.652;2022-10-31T04:57:44;8.07;;;5.00;;
43088;SDS011;28709;52.030;5.652;2022-10-31T05:00:15;7.18;;;5.10;;
43088;SDS011;28709;52.030;5.652;2022-10-31T05:02:50;6.93;;;4.57;;
43088;SDS011;28709;52.030;5.652;2022-10-31T05:07:44;9.57;;;5.32;;
43088;SDS011;28709;52.030;5.652;2022-10-31T05:10:12;7.88;;;5.20;;
43088;SDS011;28709;52.030;5.652;2022-10-31T05:12:59;9.05;;;6.13;;
43088;SDS011;28709;52.030;5.652;2022-10-31T05:15:26;8.32;;;5.30;;
43088;SDS011;28709;52.030;5.652;2022-10-31T05:17:53;11.60;;;7.00;;
43088;SDS011;28709;52.030;5.652;2022-10-31T05:20:20;15.27;;;8.80;;
43088;SDS011;28709;52.030;5.652;2022-10-31T05:22:48;12.70;;;7.68;;
43088;SDS011;28709;52.030;5.652;2022-10-31T05:25:16;9.93;;;6.53;;
43088;SDS011;28709;52.030;5.652;2022-10-31T05:27:44;11.77;;;7.07;;
43088;SDS011;28709;52.030;5.652;2022-10-31T05:30:11;11.00;;;6.13;;
43088;SDS011;28709;52.030;5.652;2022-10-31T05:32:38;9.07;;;5.60;;
43088;SDS011;28709;52.030;5.652;2022-10-31T05:35:09;13.57;;;7.50;;
43088;SDS011;28709;52.030;5.652;2022-10-31T05:37:37;10.63;;;6.35;;
43088;SDS011;28709;52.030;5.652;2022-10-31T05:40:03;10.63;;;6.43;;
43088;SDS011;28709;52.030;5.652;2022-10-31T05:42:30;10.85;;;7.00;;
43088;SDS011;28709;52.030;5.652;2022-10-31T05:44:56;8.05;;;6.22;;
43088;SDS011;28709;52.030;5.652;2022-10-31T05:47:21;9.60;;;6.68;;
43088;SDS011;28709;52.030;5.652;2022-10-31T05:49:47;11.40;;;6.93;;
43088;SDS011;28709;52.030;5.652;2022-10-31T05:52:13;9.85;;;6.97;;
43088;SDS011;28709;52.030;5.652;2022-10-31T05:54:39;11.32;;;6.93;;
43088;SDS011;28709;52.030;5.652;2022-10-31T05:57:05;10.80;;;6.70;;
43088;SDS011;28709;52.030;5.652;2022-10-31T05:59:30;11.10;;;6.45;;
43088;SDS011;28709;52.030;5.652;2022-10-31T06:02:05;12.02;;;6.57;;
43088;SDS011;28709;52.030;5.652;2022-10-31T06:04:31;10.10;;;6.32;;
43088;SDS011;28709;52.030;5.652;2022-10-31T06:06:57;14.32;;;7.28;;
43088;SDS011;28709;52.030;5.652;2022-10-31T06:09:23;12.02;;;6.82;;
43088;SDS011;28709;52.030;5.652;2022-10-31T06:11:48;11.38;;;7.20;;
43088;SDS011;28709;52.030;5.652;2022-10-31T06:14:14;10.63;;;6.35;;
43088;SDS011;28709;52.030;5.652;2022-10-31T06:16:39;9.57;;;6.65;;
43088;SDS011;28709;52.030;5.652;2022-10-31T06:19:05;13.52;;;7.05;;
43088;SDS011;28709;52.030;5.652;2022-10-31T06:21:31;12.73;;;7.72;;
43088;SDS011;28709;52.030;5.652;2022-10-31T06:23:56;20.15;;;10.18;;
43088;SDS011;28709;52.030;5.652;2022-10-31T06:26:22;16.30;;;9.60;;
43088;SDS011;28709;52.030;5.652;2022-10-31T06:28:47;18.52;;;8.95;;
43088;SDS011;28709;52.030;5.652;2022-10-31T06:31:13;16.73;;;9.35;;
43088;SDS011;28709;52.030;5.652;2022-10-31T06:33:40;13.10;;;8.88;;
43088;SDS011;28709;52.030;5.652;2022-10-31T06:36:07;13.50;;;8.57;;
43088;SDS011;28709;52.030;5.652;2022-10-31T06:38:33;21.13;;;10.63;;
43088;SDS011;28709;52.030;5.652;2022-10-31T06:41:02;16.35;;;9.52;;
43088;SDS011;28709;52.030;5.652;2022-10-31T06:43:29;14.88;;;8.95;;
43088;SDS011;28709;52.030;5.652;2022-10-31T06:45:55;11.43;;;8.20;;
43088;SDS011;28709;52.030;5.652;2022-10-31T06:48:20;21.00;;;10.73;;
43088;SDS011;28709;52.030;5.652;2022-10-31T06:50:46;17.00;;;10.00;;
43088;SDS011;28709;52.030;5.652;2022-10-31T06:53:11;14.48;;;9.05;;
43088;SDS011;28709;52.030;5.652;2022-10-31T06:55:39;22.73;;;10.43;;
43088;SDS011;28709;52.030;5.652;2022-10-31T06:58:05;20.10;;;9.85;;
43088;SDS011;28709;52.030;5.652;2022-10-31T07:00:31;19.67;;;10.68;;
43088;SDS011;28709;52.030;5.652;2022-10-31T07:02:58;25.73;;;12.82;;
43088;SDS011;28709;52.030;5.652;2022-10-31T07:05:29;23.23;;;12.60;;
43088;SDS011;28709;52.030;5.652;2022-10-31T07:07:56;24.45;;;12.07;;
43088;SDS011;28709;52.030;5.652;2022-10-31T07:10:24;24.15;;;11.43;;
43088;SDS011;28709;52.030;5.652;2022-10-31T07:13:09;32.92;;;14.30;;
43088;SDS011;28709;52.030;5.652;2022-10-31T07:15:37;22.75;;;13.23;;
43088;SDS011;28709;52.030;5.652;2022-10-31T07:18:04;24.30;;;14.38;;
43088;SDS011;28709;52.030;5.652;2022-10-31T07:20:31;19.23;;;13.40;;
43088;SDS011;28709;52.030;5.652;2022-10-31T07:22:57;29.63;;;16.88;;
43088;SDS011;28709;52.030;5.652;2022-10-31T07:25:23;25.10;;;14.10;;
43088;SDS011;28709;52.030;5.652;2022-10-31T07:27:49;18.85;;;11.52;;
43088;SDS011;28709;52.030;5.652;2022-10-31T07:30:15;19.08;;;11.15;;
43088;SDS011;28709;52.030;5.652;2022-10-31T07:32:45;13.30;;;8.63;;
43088;SDS011;28709;52.030;5.652;2022-10-31T07:35:13;15.98;;;9.95;;
43088;SDS011;28709;52.030;5.652;2022-10-31T07:37:40;14.35;;;7.72;;
43088;SDS011;28709;52.030;5.652;2022-10-31T07:40:07;15.18;;;8.77;;
43088;SDS011;28709;52.030;5.652;2022-10-31T07:45:05;15.13;;;8.77;;
43088;SDS011;28709;52.030;5.652;2022-10-31T07:47:39;20.92;;;12.13;;
43088;SDS011;28709;52.030;5.652;2022-10-31T07:50:05;19.80;;;10.75;;
43088;SDS011;28709;52.030;5.652;2022-10-31T07:52:31;14.30;;;9.98;;
43088;SDS011;28709;52.030;5.652;2022-10-31T07:54:57;15.20;;;10.10;;
43088;SDS011;28709;52.030;5.652;2022-10-31T07:57:23;21.13;;;8.57;;
43088;SDS011;28709;52.030;5.652;2022-10-31T07:59:48;16.92;;;9.15;;
43088;SDS011;28709;52.030;5.652;2022-10-31T08:02:14;16.52;;;9.45;;
43088;SDS011;28709;52.030;5.652;2022-10-31T08:04:40;14.60;;;8.57;;
43088;SDS011;28709;52.030;5.652;2022-10-31T08:07:05;15.77;;;8.40;;
43088;SDS011;28709;52.030;5.652;2022-10-31T08:09:31;15.85;;;7.85;;
43088;SDS011;28709;52.030;5.652;2022-10-31T08:11:56;11.88;;;6.95;;
43088;SDS011;28709;52.030;5.652;2022-10-31T08:14:22;13.45;;;6.68;;
43088;SDS011;28709;52.030;5.652;2022-10-31T08:16:48;15.02;;;8.80;;
43088;SDS011;28709;52.030;5.652;2022-10-31T08:19:13;16.08;;;8.52;;
43088;SDS011;28709;52.030;5.652;2022-10-31T08:21:39;16.77;;;9.27;;
43088;SDS011;28709;52.030;5.652;2022-10-31T08:24:05;16.33;;;8.45;;
43088;SDS011;28709;52.030;5.652;2022-10-31T08:26:30;16.75;;;8.38;;
43088;SDS011;28709;52.030;5.652;2022-10-31T08:28:56;12.68;;;8.50;;
43088;SDS011;28709;52.030;5.652;2022-10-31T08:31:22;16.15;;;8.75;;
43088;SDS011;28709;52.030;5.652;2022-10-31T08:33:48;18.08;;;9.23;;
43088;SDS011;28709;52.030;5.652;2022-10-31T08:36:13;16.13;;;8.35;;
43088;SDS011;28709;52.030;5.652;2022-10-31T08:38:39;16.58;;;9.27;;
43088;SDS011;28709;52.030;5.652;2022-10-31T08:41:05;14.77;;;7.90;;
43088;SDS011;28709;52.030;5.652;2022-10-31T08:43:30;15.52;;;10.40;;
43088;SDS011;28709;52.030;5.652;2022-10-31T08:45:56;16.13;;;8.20;;
43088;SDS011;28709;52.030;5.652;2022-10-31T08:48:21;15.68;;;9.27;;
43088;SDS011;28709;52.030;5.652;2022-10-31T08:50:47;13.48;;;7.95;;
43088;SDS011;28709;52.030;5.652;2022-10-31T08:53:14;11.70;;;7.03;;
43088;SDS011;28709;52.030;5.652;2022-10-31T08:55:42;10.60;;;6.68;;
43088;SDS011;28709;52.030;5.652;2022-10-31T08:58:10;12.88;;;7.70;;
43088;SDS011;28709;52.030;5.652;2022-10-31T09:00:40;11.07;;;5.53;;
43088;SDS011;28709;52.030;5.652;2022-10-31T09:03:08;16.45;;;7.05;;
43088;SDS011;28709;52.030;5.652;2022-10-31T09:05:36;12.65;;;6.65;;
43088;SDS011;28709;52.030;5.652;2022-10-31T09:08:02;14.77;;;6.53;;
43088;SDS011;28709;52.030;5.652;2022-10-31T09:10:30;10.30;;;5.32;;
43088;SDS011;28709;52.030;5.652;2022-10-31T09:12:57;10.88;;;6.45;;
43088;SDS011;28709;52.030;5.652;2022-10-31T09:15:31;11.85;;;7.13;;
43088;SDS011;28709;52.030;5.652;2022-10-31T09:17:58;14.55;;;7.28;;
43088;SDS011;28709;52.030;5.652;2022-10-31T09:20:25;8.63;;;5.95;;
43088;SDS011;28709;52.030;5.652;2022-10-31T09:22:55;11.25;;;6.97;;
43088;SDS011;28709;52.030;5.652;2022-10-31T09:25:22;17.98;;;7.63;;
43088;SDS011;28709;52.030;5.652;2022-10-31T09:27:48;10.32;;;6.00;;
43088;SDS011;28709;52.030;5.652;2022-10-31T09:30:13;10.63;;;6.38;;
43088;SDS011;28709;52.030;5.652;2022-10-31T09:32:39;9.63;;;5.68;;
43088;SDS011;28709;52.030;5.652;2022-10-31T09:35:05;7.90;;;4.93;;
43088;SDS011;28709;52.030;5.652;2022-10-31T09:37:31;9.35;;;5.10;;
43088;SDS011;28709;52.030;5.652;2022-10-31T09:39:56;18.85;;;6.25;;
43088;SDS011;28709;52.030;5.652;2022-10-31T09:56:18;15.48;;;7.93;;
43088;SDS011;28709;52.030;5.652;2022-10-31T09:58:46;13.23;;;7.80;;
43088;SDS011;28709;52.030;5.652;2022-10-31T10:04:01;16.08;;;7.57;;
43088;SDS011;28709;52.030;5.652;2022-10-31T10:06:36;11.15;;;6.47;;
43088;SDS011;28709;52.030;5.652;2022-10-31T10:09:09;14.52;;;7.10;;
43088;SDS011;28709;52.030;5.652;2022-10-31T10:14:49;11.27;;;6.60;;
43088;SDS011;28709;52.030;5.652;2022-10-31T10:26:03;12.02;;;5.93;;
43088;SDS011;28709;52.030;5.652;2022-10-31T10:28:41;10.23;;;5.85;;
43088;SDS011;28709;52.030;5.652;2022-10-31T10:31:13;13.70;;;8.05;;
43088;SDS011;28709;52.030;5.652;2022-10-31T10:33:44;24.00;;;8.90;;
43088;SDS011;28709;52.030;5.652;2022-10-31T10:36:35;12.43;;;7.88;;
43088;SDS011;28709;52.030;5.652;2022-10-31T10:42:04;23.27;;;9.65;;
43088;SDS011;28709;52.030;5.652;2022-10-31T10:44:54;23.63;;;11.60;;
43088;SDS011;28709;52.030;5.652;2022-10-31T10:47:50;21.92;;;9.93;;
43088;SDS011;28709;52.030;5.652;2022-10-31T10:50:31;24.77;;;10.73;;
43088;SDS011;28709;52.030;5.652;2022-10-31T10:53:06;19.75;;;10.80;;
43088;SDS011;28709;52.030;5.652;2022-10-31T10:58:09;22.98;;;10.02;;
43088;SDS011;28709;52.030;5.652;2022-10-31T11:00:36;18.25;;;9.93;;
43088;SDS011;28709;52.030;5.652;2022-10-31T11:03:07;19.45;;;10.20;;
43088;SDS011;28709;52.030;5.652;2022-10-31T11:13:32;18.50;;;9.75;;
43088;SDS011;28709;52.030;5.652;2022-10-31T11:16:03;22.40;;;9.40;;
43088;SDS011;28709;52.030;5.652;2022-10-31T11:18:30;20.10;;;10.95;;
43088;SDS011;28709;52.030;5.652;2022-10-31T11:21:17;25.60;;;12.02;;
43088;SDS011;28709;52.030;5.652;2022-10-31T11:26:33;26.33;;;11.60;;
43088;SDS011;28709;52.030;5.652;2022-10-31T11:29:00;21.65;;;12.00;;
43088;SDS011;28709;52.030;5.652;2022-10-31T11:31:28;18.80;;;10.80;;
43088;SDS011;28709;52.030;5.652;2022-10-31T11:34:02;23.92;;;12.93;;
43088;SDS011;28709;52.030;5.652;2022-10-31T11:36:31;27.65;;;11.68;;
43088;SDS011;28709;52.030;5.652;2022-10-31T11:39:00;20.60;;;11.65;;
43088;SDS011;28709;52.030;5.652;2022-10-31T11:41:29;22.42;;;12.48;;
43088;SDS011;28709;52.030;5.652;2022-10-31T11:44:00;21.02;;;11.57;;
43088;SDS011;28709;52.030;5.652;2022-10-31T11:46:48;30.33;;;14.82;;
43088;SDS011;28709;52.030;5.652;2022-10-31T11:49:23;24.13;;;12.68;;
43088;SDS011;28709;52.030;5.652;2022-10-31T11:51:57;21.98;;;12.18;;
43088;SDS011;28709;52.030;5.652;2022-10-31T11:54:26;30.75;;;13.98;;
43088;SDS011;28709;52.030;5.652;2022-10-31T11:56:54;28.35;;;14.95;;
43088;SDS011;28709;52.030;5.652;2022-10-31T11:59:23;25.30;;;14.63;;
43088;SDS011;28709;52.030;5.652;2022-10-31T12:01:52;34.65;;;15.80;;
43088;SDS011;28709;52.030;5.652;2022-10-31T12:04:19;27.42;;;14.55;;
43088;SDS011;28709;52.030;5.652;2022-10-31T12:06:53;26.67;;;15.02;;
43088;SDS011;28709;52.030;5.652;2022-10-31T12:09:38;40.10;;;16.42;;
43088;SDS011;28709;52.030;5.652;2022-10-31T12:28:09;34.08;;;16.58;;
43088;SDS011;28709;52.030;5.652;2022-10-31T12:41:27;38.50;;;17.17;;
43088;SDS011;28709;52.030;5.652;2022-10-31T12:44:21;35.10;;;16.83;;
43088;SDS011;28709;52.030;5.652;2022-10-31T12:49:33;34.20;;;16.20;;
43088;SDS011;28709;52.030;5.652;2022-10-31T12:57:47;33.95;;;16.63;;
43088;SDS011;28709;52.030;5.652;2022-10-31T13:00:17;35.67;;;16.48;;
43088;SDS011;28709;52.030;5.652;2022-10-31T13:02:52;34.75;;;15.60;;
43088;SDS011;28709;52.030;5.652;2022-10-31T13:05:24;31.30;;;15.65;;
43088;SDS011;28709;52.030;5.652;2022-10-31T13:13:06;26.60;;;14.05;;
43088;SDS011;28709;52.030;5.652;2022-10-31T13:15:53;27.88;;;14.50;;
43088;SDS011;28709;52.030;5.652;2022-10-31T13:18:25;30.00;;;14.38;;
43088;SDS011;28709;52.030;5.652;2022-10-31T13:20:55;28.40;;;14.75;;
43088;SDS011;28709;52.030;5.652;2022-10-31T13:23:33;24.00;;;13.93;;
43088;SDS011;28709;52.030;5.652;2022-10-31T13:26:12;29.60;;;15.98;;
43088;SDS011;28709;52.030;5.652;2022-10-31T13:31:44;28.40;;;13.95;;
43088;SDS011;28709;52.030;5.652;2022-10-31T13:34:19;26.27;;;13.15;;
43088;SDS011;28709;52.030;5.652;2022-10-31T13:37:04;30.33;;;13.60;;
43088;SDS011;28709;52.030;5.652;2022-10-31T13:40:02;22.42;;;13.13;;
43088;SDS011;28709;52.030;5.652;2022-10-31T13:42:41;27.02;;;13.05;;
43088;SDS011;28709;52.030;5.652;2022-10-31T13:45:27;27.40;;;14.45;;
43088;SDS011;28709;52.030;5.652;2022-10-31T13:50:40;26.00;;;13.43;;
43088;SDS011;28709;52.030;5.652;2022-10-31T13:53:11;21.15;;;11.90;;
43088;SDS011;28709;52.030;5.652;2022-10-31T13:55:43;22.60;;;12.77;;
43088;SDS011;28709;52.030;5.652;2022-10-31T13:58:30;24.17;;;13.15;;
43088;SDS011;28709;52.030;5.652;2022-10-31T14:04:07;29.67;;;13.40;;
43088;SDS011;28709;52.030;5.652;2022-10-31T14:06:50;29.02;;;12.70;;
43088;SDS011;28709;52.030;5.652;2022-10-31T14:09:23;36.33;;;15.73;;
43088;SDS011;28709;52.030;5.652;2022-10-31T14:11:58;25.50;;;13.63;;
43088;SDS011;28709;52.030;5.652;2022-10-31T14:14:35;29.45;;;13.00;;
43088;SDS011;28709;52.030;5.652;2022-10-31T14:17:12;26.42;;;12.30;;
43088;SDS011;28709;52.030;5.652;2022-10-31T14:19:56;27.27;;;13.90;;
43088;SDS011;28709;52.030;5.652;2022-10-31T14:22:45;26.52;;;13.95;;
43088;SDS011;28709;52.030;5.652;2022-10-31T14:27:57;20.92;;;11.38;;
43088;SDS011;28709;52.030;5.652;2022-10-31T14:30:24;28.90;;;14.27;;
43088;SDS011;28709;52.030;5.652;2022-10-31T14:32:52;27.77;;;12.52;;
43088;SDS011;28709;52.030;5.652;2022-10-31T14:35:25;29.73;;;13.30;;
43088;SDS011;28709;52.030;5.652;2022-10-31T14:41:08;23.85;;;12.23;;
43088;SDS011;28709;52.030;5.652;2022-10-31T14:44:00;23.85;;;11.27;;
43088;SDS011;28709;52.030;5.652;2022-10-31T14:49:36;25.10;;;12.23;;
43088;SDS011;28709;52.030;5.652;2022-10-31T14:52:42;25.73;;;11.10;;
43088;SDS011;28709;52.030;5.652;2022-10-31T14:55:13;29.75;;;13.25;;
43088;SDS011;28709;52.030;5.652;2022-10-31T14:57:47;26.60;;;13.65;;
43088;SDS011;28709;52.030;5.652;2022-10-31T15:00:18;29.23;;;12.70;;
43088;SDS011;28709;52.030;5.652;2022-10-31T15:05:23;31.15;;;13.25;;
43088;SDS011;28709;52.030;5.652;2022-10-31T15:07:52;30.70;;;13.95;;
43088;SDS011;28709;52.030;5.652;2022-10-31T15:15:21;24.63;;;12.18;;
43088;SDS011;28709;52.030;5.652;2022-10-31T15:17:54;22.70;;;12.90;;
43088;SDS011;28709;52.030;5.652;2022-10-31T15:20:23;27.88;;;12.18;;
43088;SDS011;28709;52.030;5.652;2022-10-31T15:22:51;23.73;;;12.95;;
43088;SDS011;28709;52.030;5.652;2022-10-31T15:25:20;26.35;;;11.48;;
43088;SDS011;28709;52.030;5.652;2022-10-31T15:27:50;17.27;;;9.05;;
43088;SDS011;28709;52.030;5.652;2022-10-31T15:30:21;29.42;;;13.00;;
43088;SDS011;28709;52.030;5.652;2022-10-31T15:32:49;21.73;;;11.88;;
43088;SDS011;28709;52.030;5.652;2022-10-31T15:35:19;20.00;;;9.65;;
43088;SDS011;28709;52.030;5.652;2022-10-31T15:37:49;16.73;;;8.02;;
43088;SDS011;28709;52.030;5.652;2022-10-31T15:40:15;16.90;;;8.40;;
43088;SDS011;28709;52.030;5.652;2022-10-31T15:42:43;14.43;;;8.85;;
43088;SDS011;28709;52.030;5.652;2022-10-31T15:45:17;13.38;;;7.57;;
43088;SDS011;28709;52.030;5.652;2022-10-31T15:47:47;15.38;;;8.38;;
43088;SDS011;28709;52.030;5.652;2022-10-31T15:50:23;20.00;;;9.33;;
43088;SDS011;28709;52.030;5.652;2022-10-31T15:53:02;17.30;;;10.27;;
43088;SDS011;28709;52.030;5.652;2022-10-31T15:55:30;13.30;;;7.43;;
43088;SDS011;28709;52.030;5.652;2022-10-31T15:58:02;15.02;;;7.68;;
43088;SDS011;28709;52.030;5.652;2022-10-31T16:00:35;13.35;;;7.70;;
43088;SDS011;28709;52.030;5.652;2022-10-31T16:05:45;18.27;;;10.45;;
43088;SDS011;28709;52.030;5.652;2022-10-31T16:13:32;23.58;;;10.65;;
43088;SDS011;28709;52.030;5.652;2022-10-31T16:16:02;18.48;;;9.82;;
43088;SDS011;28709;52.030;5.652;2022-10-31T16:18:30;20.38;;;9.02;;
43088;SDS011;28709;52.030;5.652;2022-10-31T16:21:02;17.30;;;8.38;;
43088;SDS011;28709;52.030;5.652;2022-10-31T16:23:28;15.05;;;8.57;;
43088;SDS011;28709;52.030;5.652;2022-10-31T16:25:53;16.75;;;8.07;;
43088;SDS011;28709;52.030;5.652;2022-10-31T16:28:20;18.67;;;9.10;;
43088;SDS011;28709;52.030;5.652;2022-10-31T16:30:51;23.38;;;10.98;;
43088;SDS011;28709;52.030;5.652;2022-10-31T16:33:23;17.85;;;9.60;;
43088;SDS011;28709;52.030;5.652;2022-10-31T16:38:55;23.80;;;11.73;;
43088;SDS011;28709;52.030;5.652;2022-10-31T16:41:21;24.02;;;10.57;;
43088;SDS011;28709;52.030;5.652;2022-10-31T16:43:48;26.17;;;12.10;;
43088;SDS011;28709;52.030;5.652;2022-10-31T16:46:14;23.60;;;11.10;;
43088;SDS011;28709;52.030;5.652;2022-10-31T16:48:41;22.27;;;12.07;;
43088;SDS011;28709;52.030;5.652;2022-10-31T16:51:07;26.88;;;11.75;;
43088;SDS011;28709;52.030;5.652;2022-10-31T16:53:33;23.77;;;11.80;;
43088;SDS011;28709;52.030;5.652;2022-10-31T16:56:01;21.20;;;9.50;;
43088;SDS011;28709;52.030;5.652;2022-10-31T16:58:29;20.10;;;10.40;;
43088;SDS011;28709;52.030;5.652;2022-10-31T17:00:58;16.83;;;8.80;;
43088;SDS011;28709;52.030;5.652;2022-10-31T17:03:24;16.92;;;8.15;;
43088;SDS011;28709;52.030;5.652;2022-10-31T17:05:50;20.73;;;9.32;;
43088;SDS011;28709;52.030;5.652;2022-10-31T17:08:17;21.98;;;9.63;;
43088;SDS011;28709;52.030;5.652;2022-10-31T17:10:43;17.00;;;8.98;;
43088;SDS011;28709;52.030;5.652;2022-10-31T17:13:12;19.25;;;10.10;;
43088;SDS011;28709;52.030;5.652;2022-10-31T17:15:43;20.38;;;10.65;;
43088;SDS011;28709;52.030;5.652;2022-10-31T17:18:11;18.80;;;11.00;;
43088;SDS011;28709;52.030;5.652;2022-10-31T17:20:38;29.60;;;14.45;;
43088;SDS011;28709;52.030;5.652;2022-10-31T17:23:04;23.17;;;12.88;;